sensor_id;sensor_type;location;lat;lon;timestamp;P1;durP1;ratioP1;P2;durP2;ratioP2
20369;SDS011;10344;47.592;9.600;2022-08-24T06:52:10;3.23;;;2.90;;
20369;SDS011;10344;47.592;9.600;2022-08-24T06:54:36;2.83;;;2.50;;
20369;SDS011;10344;47.592;9.600;2022-08-24T06:57:03;3.00;;;2.33;;
20369;SDS011;10344;47.592;9.600;2022-08-24T06:59:29;2.30;;;1.88;;
20369;SDS011;10344;47.592;9.600;2022-08-24T07:01:56;2.20;;;2.00;;
20369;SDS011;10344;47.592;9.600;2022-08-24T07:04:25;2.40;;;1.98;;
20369;SDS011;10344;47.592;9.600;2022-08-24T07:06:52;2.55;;;1.98;;
20369;SDS011;10344;47.592;9.600;2022-08-24T07:09:19;3.13;;;1.92;;
20369;SDS011;10344;47.592;9.600;2022-08-24T07:11:48;3.25;;;2.08;;
20369;SDS011;10344;47.592;9.600;2022-08-24T07:14:14;2.25;;;1.75;;
20369;SDS011;10344;47.592;9.600;2022-08-24T07:16:40;2.50;;;1.97;;
20369;SDS011;10344;47.592;9.600;2022-08-24T07:19:07;2.57;;;1.90;;
20369;SDS011;10344;47.592;9.600;2022-08-24T07:21:32;2.47;;;1.83;;
20369;SDS011;10344;47.592;9.600;2022-08-24T07:23:58;2.20;;;1.67;;
20369;SDS011;10344;47.592;9.600;2022-08-24T07:26:27;2.53;;;1.70;;
20369;SDS011;10344;47.592;9.600;2022-08-24T07:28:56;3.38;;;1.75;;
20369;SDS011;10344;47.592;9.600;2022-08-24T07:31:33;2.40;;;1.60;;
20369;SDS011;10344;47.592;9.600;2022-08-24T07:34:04;1.73;;;1.40;;
20369;SDS011;10344;47.592;9.600;2022-08-24T07:36:32;1.88;;;1.55;;
20369;SDS011;10344;47.592;9.600;2022-08-24T07:38:58;2.00;;;1.60;;
20369;SDS011;10344;47.592;9.600;2022-08-24T07:41:24;2.10;;;1.60;;
20369;SDS011;10344;47.592;9.600;2022-08-24T07:43:51;1.60;;;1.50;;
20369;SDS011;10344;47.592;9.600;2022-08-24T07:46:18;2.83;;;1.70;;
20369;SDS011;10344;47.592;9.600;2022-08-24T07:48:44;2.17;;;1.70;;
20369;SDS011;10344;47.592;9.600;2022-08-24T07:51:12;2.72;;;1.90;;
20369;SDS011;10344;47.592;9.600;2022-08-24T07:53:41;2.43;;;1.80;;
20369;SDS011;10344;47.592;9.600;2022-08-24T07:56:07;2.90;;;1.90;;
20369;SDS011;10344;47.592;9.600;2022-08-24T07:58:34;2.20;;;1.53;;
20369;SDS011;10344;47.592;9.600;2022-08-24T08:01:00;2.70;;;1.80;;
20369;SDS011;10344;47.592;9.600;2022-08-24T08:03:28;1.75;;;1.63;;
20369;SDS011;10344;47.592;9.600;2022-08-24T08:05:56;2.45;;;1.90;;
20369;SDS011;10344;47.592;9.600;2022-08-24T08:08:23;1.90;;;1.58;;
20369;SDS011;10344;47.592;9.600;2022-08-24T08:10:50;3.97;;;1.70;;
20369;SDS011;10344;47.592;9.600;2022-08-24T08:13:16;2.08;;;1.83;;
20369;SDS011;10344;47.592;9.600;2022-08-24T08:15:42;1.90;;;1.60;;
20369;SDS011;10344;47.592;9.600;2022-08-24T08:18:11;2.50;;;1.70;;
20369;SDS011;10344;47.592;9.600;2022-08-24T08:20:39;3.05;;;1.92;;
20369;SDS011;10344;47.592;9.600;2022-08-24T08:23:05;1.98;;;1.77;;
20369;SDS011;10344;47.592;9.600;2022-08-24T08:25:51;2.47;;;1.80;;
20369;SDS011;10344;47.592;9.600;2022-08-24T08:28:18;2.90;;;1.83;;
20369;SDS011;10344;47.592;9.600;2022-08-24T08:30:47;2.45;;;2.20;;
20369;SDS011;10344;47.592;9.600;2022-08-24T08:33:12;2.00;;;1.73;;
20369;SDS011;10344;47.592;9.600;2022-08-24T08:35:38;2.65;;;1.88;;
20369;SDS011;10344;47.592;9.600;2022-08-24T08:38:06;2.53;;;1.92;;
20369;SDS011;10344;47.592;9.600;2022-08-24T08:49:02;2.70;;;1.90;;
20369;SDS011;10344;47.592;9.600;2022-08-24T08:54:32;2.50;;;2.20;;
20369;SDS011;10344;47.592;9.600;2022-08-24T09:02:44;2.60;;;2.20;;
20369;SDS011;10344;47.592;9.600;2022-08-24T09:22:35;3.58;;;2.50;;
20369;SDS011;10344;47.592;9.600;2022-08-24T09:25:27;2.60;;;2.40;;
20369;SDS011;10344;47.592;9.600;2022-08-24T10:00:49;2.70;;;2.50;;
20369;SDS011;10344;47.592;9.600;2022-08-24T10:17:29;3.83;;;3.08;;
20369;SDS011;10344;47.592;9.600;2022-08-24T10:31:10;4.15;;;2.70;;
20369;SDS011;10344;47.592;9.600;2022-08-24T10:53:24;2.93;;;2.53;;
20369;SDS011;10344;47.592;9.600;2022-08-24T10:56:16;2.70;;;2.50;;
20369;SDS011;10344;47.592;9.600;2022-08-24T10:58:49;7.53;;;3.13;;
20369;SDS011;10344;47.592;9.600;2022-08-24T11:01:30;3.17;;;2.40;;
20369;SDS011;10344;47.592;9.600;2022-08-24T11:04:11;2.60;;;2.40;;
20369;SDS011;10344;47.592;9.600;2022-08-24T11:07:03;2.97;;;2.28;;
20369;SDS011;10344;47.592;9.600;2022-08-24T11:12:34;3.03;;;2.10;;
20369;SDS011;10344;47.592;9.600;2022-08-24T11:20:41;3.17;;;1.73;;
20369;SDS011;10344;47.592;9.600;2022-08-24T11:23:14;2.03;;;1.80;;
20369;SDS011;10344;47.592;9.600;2022-08-24T11:25:58;2.33;;;1.70;;
20369;SDS011;10344;47.592;9.600;2022-08-24T11:28:30;3.80;;;1.98;;
20369;SDS011;10344;47.592;9.600;2022-08-24T11:34:03;1.60;;;1.50;;
20369;SDS011;10344;47.592;9.600;2022-08-24T11:36:35;2.80;;;1.97;;
20369;SDS011;10344;47.592;9.600;2022-08-24T11:45:22;2.00;;;1.60;;
20369;SDS011;10344;47.592;9.600;2022-08-24T11:47:38;1.93;;;1.17;;
20369;SDS011;10344;47.592;9.600;2022-08-24T11:50:57;2.42;;;1.40;;
20369;SDS011;10344;47.592;9.600;2022-08-24T12:06:44;1.73;;;1.20;;
20369;SDS011;10344;47.592;9.600;2022-08-24T12:12:31;1.33;;;1.13;;
20369;SDS011;10344;47.592;9.600;2022-08-24T12:18:15;1.48;;;1.10;;
20369;SDS011;10344;47.592;9.600;2022-08-24T12:20:43;1.73;;;1.05;;
20369;SDS011;10344;47.592;9.600;2022-08-24T12:23:19;1.42;;;1.20;;
20369;SDS011;10344;47.592;9.600;2022-08-24T12:25:56;1.50;;;1.02;;
20369;SDS011;10344;47.592;9.600;2022-08-24T12:28:31;1.40;;;1.05;;
20369;SDS011;10344;47.592;9.600;2022-08-24T12:31:11;1.25;;;1.05;;
20369;SDS011;10344;47.592;9.600;2022-08-24T12:33:44;1.10;;;1.00;;
20369;SDS011;10344;47.592;9.600;2022-08-24T12:36:19;1.20;;;1.10;;
20369;SDS011;10344;47.592;9.600;2022-08-24T12:39:03;2.13;;;1.10;;
20369;SDS011;10344;47.592;9.600;2022-08-24T12:41:40;1.13;;;1.03;;
20369;SDS011;10344;47.592;9.600;2022-08-24T12:44:13;2.10;;;1.10;;
20369;SDS011;10344;47.592;9.600;2022-08-24T12:46:41;2.47;;;1.10;;
20369;SDS011;10344;47.592;9.600;2022-08-24T13:03:00;1.13;;;1.00;;
20369;SDS011;10344;47.592;9.600;2022-08-24T13:05:39;1.38;;;1.05;;
20369;SDS011;10344;47.592;9.600;2022-08-24T13:08:20;0.90;;;0.85;;
20369;SDS011;10344;47.592;9.600;2022-08-24T13:11:04;1.80;;;1.10;;
20369;SDS011;10344;47.592;9.600;2022-08-24T13:24:40;4.38;;;1.52;;
20369;SDS011;10344;47.592;9.600;2022-08-24T13:29:40;0.80;;;0.80;;
20369;SDS011;10344;47.592;9.600;2022-08-24T13:32:15;1.17;;;1.00;;
20369;SDS011;10344;47.592;9.600;2022-08-24T13:34:49;1.10;;;1.00;;
20369;SDS011;10344;47.592;9.600;2022-08-24T13:40:05;1.10;;;0.80;;
20369;SDS011;10344;47.592;9.600;2022-08-24T13:45:23;1.70;;;0.85;;
20369;SDS011;10344;47.592;9.600;2022-08-24T14:37:29;1.20;;;1.10;;
20369;SDS011;10344;47.592;9.600;2022-08-24T14:40:22;1.25;;;1.13;;
20369;SDS011;10344;47.592;9.600;2022-08-24T14:42:54;1.35;;;0.93;;
20369;SDS011;10344;47.592;9.600;2022-08-24T14:51:25;2.33;;;1.10;;
20369;SDS011;10344;47.592;9.600;2022-08-24T15:07:51;1.85;;;1.20;;
20369;SDS011;10344;47.592;9.600;2022-08-24T15:10:35;1.92;;;1.10;;
20369;SDS011;10344;47.592;9.600;2022-08-24T15:16:08;2.40;;;1.10;;
20369;SDS011;10344;47.592;9.600;2022-08-24T15:18:51;1.77;;;1.10;;
20369;SDS011;10344;47.592;9.600;2022-08-24T15:21:33;1.92;;;1.10;;
20369;SDS011;10344;47.592;9.600;2022-08-24T15:29:32;1.20;;;1.10;;
20369;SDS011;10344;47.592;9.600;2022-08-24T15:34:41;1.92;;;1.10;;
20369;SDS011;10344;47.592;9.600;2022-08-24T15:37:07;1.90;;;1.30;;
20369;SDS011;10344;47.592;9.600;2022-08-24T15:39:34;2.30;;;1.50;;
20369;SDS011;10344;47.592;9.600;2022-08-24T15:42:05;1.30;;;1.20;;
20369;SDS011;10344;47.592;9.600;2022-08-24T15:44:35;2.25;;;1.20;;
20369;SDS011;10344;47.592;9.600;2022-08-24T15:47:02;2.25;;;1.40;;
20369;SDS011;10344;47.592;9.600;2022-08-24T15:49:44;1.27;;;1.17;;
20369;SDS011;10344;47.592;9.600;2022-08-24T15:55:06;1.70;;;1.30;;
20369;SDS011;10344;47.592;9.600;2022-08-24T15:57:39;2.60;;;1.35;;
20369;SDS011;10344;47.592;9.600;2022-08-24T16:06:15;2.50;;;1.50;;
20369;SDS011;10344;47.592;9.600;2022-08-24T16:09:31;2.92;;;1.40;;
20369;SDS011;10344;47.592;9.600;2022-08-24T16:14:13;1.48;;;1.38;;
20369;SDS011;10344;47.592;9.600;2022-08-24T16:16:59;2.13;;;1.65;;
20369;SDS011;10344;47.592;9.600;2022-08-24T16:19:41;1.30;;;1.17;;
20369;SDS011;10344;47.592;9.600;2022-08-24T16:33:10;2.97;;;1.48;;
20369;SDS011;10344;47.592;9.600;2022-08-24T16:35:56;2.33;;;1.58;;
20369;SDS011;10344;47.592;9.600;2022-08-24T16:38:28;1.80;;;1.50;;
20369;SDS011;10344;47.592;9.600;2022-08-24T16:41:02;1.70;;;1.40;;
20369;SDS011;10344;47.592;9.600;2022-08-24T16:43:32;2.20;;;1.60;;
20369;SDS011;10344;47.592;9.600;2022-08-24T16:45:59;2.63;;;1.60;;
20369;SDS011;10344;47.592;9.600;2022-08-24T16:48:27;2.03;;;1.60;;
20369;SDS011;10344;47.592;9.600;2022-08-24T16:50:53;2.22;;;1.70;;
20369;SDS011;10344;47.592;9.600;2022-08-24T16:53:21;2.53;;;1.77;;
20369;SDS011;10344;47.592;9.600;2022-08-24T16:55:48;1.80;;;1.70;;
20369;SDS011;10344;47.592;9.600;2022-08-24T16:58:14;2.50;;;1.70;;
20369;SDS011;10344;47.592;9.600;2022-08-24T17:00:43;2.53;;;1.58;;
20369;SDS011;10344;47.592;9.600;2022-08-24T17:03:10;1.90;;;1.60;;
20369;SDS011;10344;47.592;9.600;2022-08-24T17:05:36;1.67;;;1.58;;
20369;SDS011;10344;47.592;9.600;2022-08-24T17:08:02;1.77;;;1.60;;
20369;SDS011;10344;47.592;9.600;2022-08-24T17:10:28;3.47;;;1.70;;
20369;SDS011;10344;47.592;9.600;2022-08-24T17:12:55;1.70;;;1.60;;
20369;SDS011;10344;47.592;9.600;2022-08-24T17:15:21;1.80;;;1.70;;
20369;SDS011;10344;47.592;9.600;2022-08-24T17:17:55;2.33;;;1.73;;
20369;SDS011;10344;47.592;9.600;2022-08-24T17:20:31;2.30;;;1.70;;
20369;SDS011;10344;47.592;9.600;2022-08-24T17:22:57;1.90;;;1.70;;
20369;SDS011;10344;47.592;9.600;2022-08-24T17:25:23;2.23;;;1.90;;
20369;SDS011;10344;47.592;9.600;2022-08-24T17:27:51;3.35;;;2.00;;
20369;SDS011;10344;47.592;9.600;2022-08-24T17:30:21;2.28;;;2.08;;
20369;SDS011;10344;47.592;9.600;2022-08-24T17:32:48;3.60;;;1.90;;
20369;SDS011;10344;47.592;9.600;2022-08-24T17:35:15;2.38;;;1.98;;
20369;SDS011;10344;47.592;9.600;2022-08-24T17:37:41;2.70;;;2.00;;
20369;SDS011;10344;47.592;9.600;2022-08-24T17:40:10;2.05;;;1.90;;
20369;SDS011;10344;47.592;9.600;2022-08-24T17:42:41;2.20;;;2.00;;
20369;SDS011;10344;47.592;9.600;2022-08-24T17:45:06;2.03;;;1.83;;
20369;SDS011;10344;47.592;9.600;2022-08-24T17:47:33;2.17;;;1.92;;
20369;SDS011;10344;47.592;9.600;2022-08-24T17:49:59;1.80;;;1.70;;
20369;SDS011;10344;47.592;9.600;2022-08-24T17:52:25;1.98;;;1.80;;
20369;SDS011;10344;47.592;9.600;2022-08-24T17:54:51;2.25;;;2.00;;
20369;SDS011;10344;47.592;9.600;2022-08-24T17:57:17;2.35;;;1.92;;
20369;SDS011;10344;47.592;9.600;2022-08-24T17:59:46;2.28;;;2.08;;
20369;SDS011;10344;47.592;9.600;2022-08-24T18:02:17;2.42;;;2.03;;
20369;SDS011;10344;47.592;9.600;2022-08-24T18:04:42;2.15;;;1.70;;
20369;SDS011;10344;47.592;9.600;2022-08-24T18:07:09;2.55;;;2.00;;
20369;SDS011;10344;47.592;9.600;2022-08-24T18:09:39;1.92;;;1.80;;
20369;SDS011;10344;47.592;9.600;2022-08-24T18:12:10;2.20;;;2.00;;
20369;SDS011;10344;47.592;9.600;2022-08-24T18:14:36;2.20;;;1.95;;
20369;SDS011;10344;47.592;9.600;2022-08-24T18:17:03;2.63;;;1.90;;
20369;SDS011;10344;47.592;9.600;2022-08-24T18:19:31;4.53;;;1.95;;
20369;SDS011;10344;47.592;9.600;2022-08-24T18:21:58;2.10;;;1.90;;
20369;SDS011;10344;47.592;9.600;2022-08-24T18:24:25;2.13;;;1.92;;
20369;SDS011;10344;47.592;9.600;2022-08-24T18:26:59;2.30;;;2.10;;
20369;SDS011;10344;47.592;9.600;2022-08-24T18:29:30;2.20;;;1.80;;
20369;SDS011;10344;47.592;9.600;2022-08-24T18:31:57;2.10;;;1.85;;
